sensor_id;sensor_type;location;lat;lon;timestamp;temperature;humidity
33093;DHT22;19456;46.104;12.908;2024-03-22T00:01:13;9.80;99.90
33093;DHT22;19456;46.104;12.908;2024-03-22T00:03:38;9.90;99.90
33093;DHT22;19456;46.104;12.908;2024-03-22T00:06:04;9.90;99.90
33093;DHT22;19456;46.104;12.908;2024-03-22T00:08:30;9.80;99.90
33093;DHT22;19456;46.104;12.908;2024-03-22T00:10:55;9.70;99.90
33093;DHT22;19456;46.104;12.908;2024-03-22T00:13:21;9.30;99.90
33093;DHT22;19456;46.104;12.908;2024-03-22T00:15:47;9.30;99.90
33093;DHT22;19456;46.104;12.908;2024-03-22T00:18:12;9.40;99.90
33093;DHT22;19456;46.104;12.908;2024-03-22T00:20:38;9.50;99.90
33093;DHT22;19456;46.104;12.908;2024-03-22T00:23:03;9.20;99.90
33093;DHT22;19456;46.104;12.908;2024-03-22T00:25:29;8.90;99.90
33093;DHT22;19456;46.104;12.908;2024-03-22T00:27:55;8.90;99.90
33093;DHT22;19456;46.104;12.908;2024-03-22T00:30:20;8.80;99.90
33093;DHT22;19456;46.104;12.908;2024-03-22T00:32:46;8.90;99.90
33093;DHT22;19456;46.104;12.908;2024-03-22T00:35:12;9.00;99.90
33093;DHT22;19456;46.104;12.908;2024-03-22T00:37:38;8.90;99.90
33093;DHT22;19456;46.104;12.908;2024-03-22T00:40:03;9.10;99.90
33093;DHT22;19456;46.104;12.908;2024-03-22T00:42:29;9.00;99.90
33093;DHT22;19456;46.104;12.908;2024-03-22T00:44:55;8.80;99.90
33093;DHT22;19456;46.104;12.908;2024-03-22T00:47:22;8.80;99.90
33093;DHT22;19456;46.104;12.908;2024-03-22T00:49:47;8.90;99.90
33093;DHT22;19456;46.104;12.908;2024-03-22T00:52:13;9.00;99.90
33093;DHT22;19456;46.104;12.908;2024-03-22T00:54:38;8.90;99.90
33093;DHT22;19456;46.104;12.908;2024-03-22T00:57:05;8.70;99.90
33093;DHT22;19456;46.104;12.908;2024-03-22T00:59:31;8.60;99.90
33093;DHT22;19456;46.104;12.908;2024-03-22T01:01:56;8.50;99.90
33093;DHT22;19456;46.104;12.908;2024-03-22T01:04:22;8.60;99.90
33093;DHT22;19456;46.104;12.908;2024-03-22T01:06:47;8.70;99.90
33093;DHT22;19456;46.104;12.908;2024-03-22T01:09:14;8.60;99.90
33093;DHT22;19456;46.104;12.908;2024-03-22T01:11:39;8.80;99.90
33093;DHT22;19456;46.104;12.908;2024-03-22T01:14:05;8.80;99.90
33093;DHT22;19456;46.104;12.908;2024-03-22T01:16:31;8.70;99.90
33093;DHT22;19456;46.104;12.908;2024-03-22T01:18:56;8.80;99.90
33093;DHT22;19456;46.104;12.908;2024-03-22T01:21:22;8.90;99.90
33093;DHT22;19456;46.104;12.908;2024-03-22T01:23:53;9.00;99.90
33093;DHT22;19456;46.104;12.908;2024-03-22T01:26:19;9.10;99.90
33093;DHT22;19456;46.104;12.908;2024-03-22T01:28:44;8.80;99.90
33093;DHT22;19456;46.104;12.908;2024-03-22T01:31:10;8.50;99.90
33093;DHT22;19456;46.104;12.908;2024-03-22T01:33:35;8.40;99.90
33093;DHT22;19456;46.104;12.908;2024-03-22T01:36:01;8.10;99.90
33093;DHT22;19456;46.104;12.908;2024-03-22T01:38:26;7.90;99.90
33093;DHT22;19456;46.104;12.908;2024-03-22T01:40:52;7.90;99.90
33093;DHT22;19456;46.104;12.908;2024-03-22T01:43:17;7.90;99.90
33093;DHT22;19456;46.104;12.908;2024-03-22T01:45:43;7.90;99.90
33093;DHT22;19456;46.104;12.908;2024-03-22T01:48:08;7.90;99.90
33093;DHT22;19456;46.104;12.908;2024-03-22T01:50:34;8.00;99.90
33093;DHT22;19456;46.104;12.908;2024-03-22T01:53:00;8.20;99.90
33093;DHT22;19456;46.104;12.908;2024-03-22T01:55:26;8.20;99.90
33093;DHT22;19456;46.104;12.908;2024-03-22T01:57:52;8.20;99.90
33093;DHT22;19456;46.104;12.908;2024-03-22T02:00:18;8.20;99.90
33093;DHT22;19456;46.104;12.908;2024-03-22T02:02:44;8.20;99.90
33093;DHT22;19456;46.104;12.908;2024-03-22T02:05:16;8.10;99.90
33093;DHT22;19456;46.104;12.908;2024-03-22T02:07:47;8.00;99.90
33093;DHT22;19456;46.104;12.908;2024-03-22T02:10:13;7.90;99.90
33093;DHT22;19456;46.104;12.908;2024-03-22T02:12:39;8.10;99.90
33093;DHT22;19456;46.104;12.908;2024-03-22T02:15:05;8.30;99.90
33093;DHT22;19456;46.104;12.908;2024-03-22T02:17:32;8.50;99.90
33093;DHT22;19456;46.104;12.908;2024-03-22T02:19:57;8.60;99.90
33093;DHT22;19456;46.104;12.908;2024-03-22T02:22:23;8.70;99.90
33093;DHT22;19456;46.104;12.908;2024-03-22T02:24:48;8.50;99.90
33093;DHT22;19456;46.104;12.908;2024-03-22T02:27:14;8.40;99.90
33093;DHT22;19456;46.104;12.908;2024-03-22T02:29:39;8.40;99.90
33093;DHT22;19456;46.104;12.908;2024-03-22T02:32:06;8.50;99.90
33093;DHT22;19456;46.104;12.908;2024-03-22T02:34:31;8.50;99.90
33093;DHT22;19456;46.104;12.908;2024-03-22T02:36:57;8.50;99.90
33093;DHT22;19456;46.104;12.908;2024-03-22T02:39:22;8.40;99.90
33093;DHT22;19456;46.104;12.908;2024-03-22T02:41:48;8.40;99.90
33093;DHT22;19456;46.104;12.908;2024-03-22T02:44:13;8.10;99.90
33093;DHT22;19456;46.104;12.908;2024-03-22T02:46:39;8.00;99.90
33093;DHT22;19456;46.104;12.908;2024-03-22T02:49:04;8.10;99.90
33093;DHT22;19456;46.104;12.908;2024-03-22T02:51:30;8.20;99.90
33093;DHT22;19456;46.104;12.908;2024-03-22T02:53:55;8.00;99.90
33093;DHT22;19456;46.104;12.908;2024-03-22T02:56:21;8.20;99.90
33093;DHT22;19456;46.104;12.908;2024-03-22T02:58:46;8.20;99.90
33093;DHT22;19456;46.104;12.908;2024-03-22T03:01:14;8.20;99.90
33093;DHT22;19456;46.104;12.908;2024-03-22T03:03:39;8.10;99.90
33093;DHT22;19456;46.104;12.908;2024-03-22T03:06:05;7.90;99.90
33093;DHT22;19456;46.104;12.908;2024-03-22T03:08:31;7.80;99.90
33093;DHT22;19456;46.104;12.908;2024-03-22T03:10:56;7.70;99.90
33093;DHT22;19456;46.104;12.908;2024-03-22T03:13:22;7.80;99.90
33093;DHT22;19456;46.104;12.908;2024-03-22T03:15:47;7.80;99.90
33093;DHT22;19456;46.104;12.908;2024-03-22T03:18:13;7.80;99.90
33093;DHT22;19456;46.104;12.908;2024-03-22T03:20:38;8.00;99.90
33093;DHT22;19456;46.104;12.908;2024-03-22T03:23:04;8.00;99.90
33093;DHT22;19456;46.104;12.908;2024-03-22T03:25:29;8.10;99.90
33093;DHT22;19456;46.104;12.908;2024-03-22T03:27:55;8.10;99.90
33093;DHT22;19456;46.104;12.908;2024-03-22T03:30:20;8.20;99.90
33093;DHT22;19456;46.104;12.908;2024-03-22T03:32:46;8.70;99.90
33093;DHT22;19456;46.104;12.908;2024-03-22T03:35:11;9.10;99.90
33093;DHT22;19456;46.104;12.908;2024-03-22T03:37:37;8.90;99.90
33093;DHT22;19456;46.104;12.908;2024-03-22T03:40:02;9.00;99.90
33093;DHT22;19456;46.104;12.908;2024-03-22T03:42:28;9.20;99.90
33093;DHT22;19456;46.104;12.908;2024-03-22T03:44:54;9.60;99.90
33093;DHT22;19456;46.104;12.908;2024-03-22T03:47:19;9.90;99.90
33093;DHT22;19456;46.104;12.908;2024-03-22T03:49:45;10.10;99.90
33093;DHT22;19456;46.104;12.908;2024-03-22T03:52:11;10.00;99.90
33093;DHT22;19456;46.104;12.908;2024-03-22T03:54:36;9.80;99.90
33093;DHT22;19456;46.104;12.908;2024-03-22T03:57:02;9.70;99.90
33093;DHT22;19456;46.104;12.908;2024-03-22T03:59:27;9.50;99.90
33093;DHT22;19456;46.104;12.908;2024-03-22T04:01:53;9.40;99.90
33093;DHT22;19456;46.104;12.908;2024-03-22T04:04:18;9.20;99.90
33093;DHT22;19456;46.104;12.908;2024-03-22T04:06:44;9.10;99.90
33093;DHT22;19456;46.104;12.908;2024-03-22T04:09:09;9.00;99.90
33093;DHT22;19456;46.104;12.908;2024-03-22T04:11:35;8.90;99.90
33093;DHT22;19456;46.104;12.908;2024-03-22T04:14:00;8.90;99.90
33093;DHT22;19456;46.104;12.908;2024-03-22T04:16:26;9.00;99.90
33093;DHT22;19456;46.104;12.908;2024-03-22T04:18:52;9.00;99.90
33093;DHT22;19456;46.104;12.908;2024-03-22T04:21:18;8.90;99.90
33093;DHT22;19456;46.104;12.908;2024-03-22T04:23:44;9.00;99.90
33093;DHT22;19456;46.104;12.908;2024-03-22T04:26:09;9.20;99.90
33093;DHT22;19456;46.104;12.908;2024-03-22T04:28:35;9.20;99.90
33093;DHT22;19456;46.104;12.908;2024-03-22T04:31:01;9.10;99.90
33093;DHT22;19456;46.104;12.908;2024-03-22T04:33:27;8.90;99.90
33093;DHT22;19456;46.104;12.908;2024-03-22T04:35:53;8.80;99.90
33093;DHT22;19456;46.104;12.908;2024-03-22T04:38:18;8.70;99.90
33093;DHT22;19456;46.104;12.908;2024-03-22T04:40:44;8.70;99.90
33093;DHT22;19456;46.104;12.908;2024-03-22T04:43:09;8.80;99.90
33093;DHT22;19456;46.104;12.908;2024-03-22T04:45:35;9.00;99.90
33093;DHT22;19456;46.104;12.908;2024-03-22T04:48:01;9.20;99.90
33093;DHT22;19456;46.104;12.908;2024-03-22T04:50:26;9.30;99.90
33093;DHT22;19456;46.104;12.908;2024-03-22T04:52:52;9.30;99.90
33093;DHT22;19456;46.104;12.908;2024-03-22T04:55:17;9.20;99.90
33093;DHT22;19456;46.104;12.908;2024-03-22T04:57:43;9.20;99.90
33093;DHT22;19456;46.104;12.908;2024-03-22T05:00:09;9.10;99.90
33093;DHT22;19456;46.104;12.908;2024-03-22T05:02:34;8.90;99.90
33093;DHT22;19456;46.104;12.908;2024-03-22T05:05:00;8.60;99.90
33093;DHT22;19456;46.104;12.908;2024-03-22T05:07:25;8.50;99.90
33093;DHT22;19456;46.104;12.908;2024-03-22T05:09:51;8.40;99.90
33093;DHT22;19456;46.104;12.908;2024-03-22T05:12:16;8.10;99.90
33093;DHT22;19456;46.104;12.908;2024-03-22T05:14:42;8.10;99.90
33093;DHT22;19456;46.104;12.908;2024-03-22T05:17:07;8.00;99.90
33093;DHT22;19456;46.104;12.908;2024-03-22T05:19:33;8.00;99.90
33093;DHT22;19456;46.104;12.908;2024-03-22T05:21:58;8.20;99.90
33093;DHT22;19456;46.104;12.908;2024-03-22T05:24:25;8.20;99.90
33093;DHT22;19456;46.104;12.908;2024-03-22T05:26:51;8.40;99.90
33093;DHT22;19456;46.104;12.908;2024-03-22T05:29:16;8.70;99.90
33093;DHT22;19456;46.104;12.908;2024-03-22T05:31:49;8.90;99.90
33093;DHT22;19456;46.104;12.908;2024-03-22T05:34:16;9.00;99.90
33093;DHT22;19456;46.104;12.908;2024-03-22T05:36:42;9.10;99.90
33093;DHT22;19456;46.104;12.908;2024-03-22T05:39:07;9.10;99.90
33093;DHT22;19456;46.104;12.908;2024-03-22T05:41:33;8.90;99.90
33093;DHT22;19456;46.104;12.908;2024-03-22T05:43:59;8.80;99.90
33093;DHT22;19456;46.104;12.908;2024-03-22T05:46:24;8.80;99.90
33093;DHT22;19456;46.104;12.908;2024-03-22T05:48:50;8.70;99.90
33093;DHT22;19456;46.104;12.908;2024-03-22T05:51:17;8.80;99.90
33093;DHT22;19456;46.104;12.908;2024-03-22T05:53:42;8.80;99.90
33093;DHT22;19456;46.104;12.908;2024-03-22T05:56:08;8.90;99.90
33093;DHT22;19456;46.104;12.908;2024-03-22T05:58:34;8.90;99.90
33093;DHT22;19456;46.104;12.908;2024-03-22T06:01:00;8.90;99.90
33093;DHT22;19456;46.104;12.908;2024-03-22T06:03:25;9.00;99.90
33093;DHT22;19456;46.104;12.908;2024-03-22T06:05:52;9.00;99.90
33093;DHT22;19456;46.104;12.908;2024-03-22T06:08:20;9.10;99.90
33093;DHT22;19456;46.104;12.908;2024-03-22T06:10:46;9.20;99.90
33093;DHT22;19456;46.104;12.908;2024-03-22T06:13:12;9.60;99.90
33093;DHT22;19456;46.104;12.908;2024-03-22T06:15:37;9.70;99.90
33093;DHT22;19456;46.104;12.908;2024-03-22T06:18:03;9.80;99.90
33093;DHT22;19456;46.104;12.908;2024-03-22T06:20:28;10.00;99.90
33093;DHT22;19456;46.104;12.908;2024-03-22T06:22:54;9.90;99.90
33093;DHT22;19456;46.104;12.908;2024-03-22T06:25:19;9.90;99.90
33093;DHT22;19456;46.104;12.908;2024-03-22T06:27:45;10.00;99.90
33093;DHT22;19456;46.104;12.908;2024-03-22T06:30:10;9.80;99.90
33093;DHT22;19456;46.104;12.908;2024-03-22T06:32:36;9.80;99.90
33093;DHT22;19456;46.104;12.908;2024-03-22T06:35:01;9.60;99.90
33093;DHT22;19456;46.104;12.908;2024-03-22T06:37:30;9.80;99.90
33093;DHT22;19456;46.104;12.908;2024-03-22T06:39:56;10.00;99.90
33093;DHT22;19456;46.104;12.908;2024-03-22T06:42:24;10.20;99.90
33093;DHT22;19456;46.104;12.908;2024-03-22T06:44:49;10.50;99.90
33093;DHT22;19456;46.104;12.908;2024-03-22T06:47:15;10.70;99.90
33093;DHT22;19456;46.104;12.908;2024-03-22T06:49:40;10.80;99.90
33093;DHT22;19456;46.104;12.908;2024-03-22T06:52:06;10.80;99.90
33093;DHT22;19456;46.104;12.908;2024-03-22T06:54:33;10.90;99.90
33093;DHT22;19456;46.104;12.908;2024-03-22T06:56:58;11.10;99.90
33093;DHT22;19456;46.104;12.908;2024-03-22T06:59:24;11.20;99.90
33093;DHT22;19456;46.104;12.908;2024-03-22T07:01:53;11.30;99.90
33093;DHT22;19456;46.104;12.908;2024-03-22T07:04:19;11.40;99.90
33093;DHT22;19456;46.104;12.908;2024-03-22T07:06:45;11.60;99.90
33093;DHT22;19456;46.104;12.908;2024-03-22T07:09:11;11.70;99.90
33093;DHT22;19456;46.104;12.908;2024-03-22T07:11:37;11.90;99.90
33093;DHT22;19456;46.104;12.908;2024-03-22T07:14:03;12.00;99.90
33093;DHT22;19456;46.104;12.908;2024-03-22T07:16:30;12.10;99.90
33093;DHT22;19456;46.104;12.908;2024-03-22T07:18:56;12.30;99.90
33093;DHT22;19456;46.104;12.908;2024-03-22T07:21:22;12.40;99.90
33093;DHT22;19456;46.104;12.908;2024-03-22T07:26:50;12.60;99.90
33093;DHT22;19456;46.104;12.908;2024-03-22T07:29:16;12.70;99.90
33093;DHT22;19456;46.104;12.908;2024-03-22T07:31:41;12.80;99.90
33093;DHT22;19456;46.104;12.908;2024-03-22T07:34:07;12.90;99.90
33093;DHT22;19456;46.104;12.908;2024-03-22T07:36:36;13.00;99.90
33093;DHT22;19456;46.104;12.908;2024-03-22T07:39:02;13.10;99.90
33093;DHT22;19456;46.104;12.908;2024-03-22T07:41:28;13.20;99.90
33093;DHT22;19456;46.104;12.908;2024-03-22T07:43:54;13.30;99.90
33093;DHT22;19456;46.104;12.908;2024-03-22T07:46:20;13.40;99.90
33093;DHT22;19456;46.104;12.908;2024-03-22T07:48:45;13.50;99.90
33093;DHT22;19456;46.104;12.908;2024-03-22T07:51:11;13.50;99.90
33093;DHT22;19456;46.104;12.908;2024-03-22T07:53:36;13.60;99.90
33093;DHT22;19456;46.104;12.908;2024-03-22T07:56:02;13.60;99.90
33093;DHT22;19456;46.104;12.908;2024-03-22T07:58:27;13.70;99.90
33093;DHT22;19456;46.104;12.908;2024-03-22T08:00:53;13.80;99.90
33093;DHT22;19456;46.104;12.908;2024-03-22T08:03:19;13.80;99.90
33093;DHT22;19456;46.104;12.908;2024-03-22T08:05:45;13.90;99.90
33093;DHT22;19456;46.104;12.908;2024-03-22T08:08:10;14.00;99.90
33093;DHT22;19456;46.104;12.908;2024-03-22T08:10:36;14.10;99.90
33093;DHT22;19456;46.104;12.908;2024-03-22T08:13:01;14.10;99.90
33093;DHT22;19456;46.104;12.908;2024-03-22T08:15:27;14.20;99.90
33093;DHT22;19456;46.104;12.908;2024-03-22T08:17:53;14.20;99.90
33093;DHT22;19456;46.104;12.908;2024-03-22T08:20:18;14.30;99.90
33093;DHT22;19456;46.104;12.908;2024-03-22T08:22:44;14.30;99.90
33093;DHT22;19456;46.104;12.908;2024-03-22T08:25:09;14.40;99.90
33093;DHT22;19456;46.104;12.908;2024-03-22T08:27:35;14.50;99.90
33093;DHT22;19456;46.104;12.908;2024-03-22T08:30:00;14.60;99.90
33093;DHT22;19456;46.104;12.908;2024-03-22T08:32:26;14.60;99.90
33093;DHT22;19456;46.104;12.908;2024-03-22T08:34:52;14.70;99.90
33093;DHT22;19456;46.104;12.908;2024-03-22T08:37:17;14.80;99.90
33093;DHT22;19456;46.104;12.908;2024-03-22T08:39:43;14.90;99.90
33093;DHT22;19456;46.104;12.908;2024-03-22T08:42:08;14.90;99.90
33093;DHT22;19456;46.104;12.908;2024-03-22T08:44:34;15.00;99.90
33093;DHT22;19456;46.104;12.908;2024-03-22T08:47:00;15.10;99.90
33093;DHT22;19456;46.104;12.908;2024-03-22T08:49:26;15.10;99.90
33093;DHT22;19456;46.104;12.908;2024-03-22T08:51:51;15.20;99.90
33093;DHT22;19456;46.104;12.908;2024-03-22T08:54:17;15.30;99.90
33093;DHT22;19456;46.104;12.908;2024-03-22T08:56:42;15.30;99.90
33093;DHT22;19456;46.104;12.908;2024-03-22T08:59:08;15.40;99.90
33093;DHT22;19456;46.104;12.908;2024-03-22T09:01:33;15.50;99.90
33093;DHT22;19456;46.104;12.908;2024-03-22T09:03:59;15.60;99.90
33093;DHT22;19456;46.104;12.908;2024-03-22T09:06:24;15.60;99.90
33093;DHT22;19456;46.104;12.908;2024-03-22T09:08:51;15.70;99.90
33093;DHT22;19456;46.104;12.908;2024-03-22T09:11:17;15.80;99.90
33093;DHT22;19456;46.104;12.908;2024-03-22T09:13:43;15.90;99.90
33093;DHT22;19456;46.104;12.908;2024-03-22T09:16:15;16.00;99.90
33093;DHT22;19456;46.104;12.908;2024-03-22T09:18:40;16.10;99.90
33093;DHT22;19456;46.104;12.908;2024-03-22T09:21:06;16.20;99.90
33093;DHT22;19456;46.104;12.908;2024-03-22T09:23:34;16.20;99.90
33093;DHT22;19456;46.104;12.908;2024-03-22T09:25:59;16.30;99.90
33093;DHT22;19456;46.104;12.908;2024-03-22T09:28:25;16.40;99.90
33093;DHT22;19456;46.104;12.908;2024-03-22T09:30:51;16.50;99.90
33093;DHT22;19456;46.104;12.908;2024-03-22T09:33:17;16.50;99.90
33093;DHT22;19456;46.104;12.908;2024-03-22T09:35:43;16.60;99.90
33093;DHT22;19456;46.104;12.908;2024-03-22T09:38:10;16.70;99.90
33093;DHT22;19456;46.104;12.908;2024-03-22T09:40:38;16.80;99.90
33093;DHT22;19456;46.104;12.908;2024-03-22T09:43:07;17.00;99.90
33093;DHT22;19456;46.104;12.908;2024-03-22T09:45:33;17.00;99.90
33093;DHT22;19456;46.104;12.908;2024-03-22T09:47:59;17.20;99.90
33093;DHT22;19456;46.104;12.908;2024-03-22T09:50:26;17.30;99.90
33093;DHT22;19456;46.104;12.908;2024-03-22T09:52:52;17.30;99.90
33093;DHT22;19456;46.104;12.908;2024-03-22T09:55:24;17.40;99.90
33093;DHT22;19456;46.104;12.908;2024-03-22T09:58:01;17.50;99.90
33093;DHT22;19456;46.104;12.908;2024-03-22T10:00:27;17.50;99.90
33093;DHT22;19456;46.104;12.908;2024-03-22T10:02:56;17.60;99.90
33093;DHT22;19456;46.104;12.908;2024-03-22T10:05:25;17.80;99.90
33093;DHT22;19456;46.104;12.908;2024-03-22T10:11:01;17.80;99.90
33093;DHT22;19456;46.104;12.908;2024-03-22T10:16:43;17.70;98.80
33093;DHT22;19456;46.104;12.908;2024-03-22T10:19:30;17.80;99.80
33093;DHT22;19456;46.104;12.908;2024-03-22T10:34:55;18.50;98.00
33093;DHT22;19456;46.104;12.908;2024-03-22T10:40:36;18.70;96.60
33093;DHT22;19456;46.104;12.908;2024-03-22T10:46:22;18.90;96.20
33093;DHT22;19456;46.104;12.908;2024-03-22T10:49:40;19.10;94.80
33093;DHT22;19456;46.104;12.908;2024-03-22T11:02:01;19.70;91.30
33093;DHT22;19456;46.104;12.908;2024-03-22T11:34:02;22.40;79.00
33093;DHT22;19456;46.104;12.908;2024-03-22T11:36:35;22.70;77.80
33093;DHT22;19456;46.104;12.908;2024-03-22T11:39:34;23.10;76.40
33093;DHT22;19456;46.104;12.908;2024-03-22T11:45:00;23.60;74.70
33093;DHT22;19456;46.104;12.908;2024-03-22T11:47:26;22.90;74.60
33093;DHT22;19456;46.104;12.908;2024-03-22T11:49:52;22.80;73.30
33093;DHT22;19456;46.104;12.908;2024-03-22T11:52:17;23.50;73.80
33093;DHT22;19456;46.104;12.908;2024-03-22T11:54:49;23.60;73.80
33093;DHT22;19456;46.104;12.908;2024-03-22T11:57:15;23.40;72.20
33093;DHT22;19456;46.104;12.908;2024-03-22T11:59:41;23.60;70.70
33093;DHT22;19456;46.104;12.908;2024-03-22T12:02:06;23.90;70.50
33093;DHT22;19456;46.104;12.908;2024-03-22T12:04:33;24.00;67.50
33093;DHT22;19456;46.104;12.908;2024-03-22T12:06:59;24.40;66.10
33093;DHT22;19456;46.104;12.908;2024-03-22T12:09:27;24.20;64.80
33093;DHT22;19456;46.104;12.908;2024-03-22T12:11:54;24.20;65.00
33093;DHT22;19456;46.104;12.908;2024-03-22T12:14:20;24.20;67.30
33093;DHT22;19456;46.104;12.908;2024-03-22T12:16:46;24.30;67.80
33093;DHT22;19456;46.104;12.908;2024-03-22T12:19:12;24.20;67.20
33093;DHT22;19456;46.104;12.908;2024-03-22T12:21:37;23.70;68.20
33093;DHT22;19456;46.104;12.908;2024-03-22T12:24:03;23.70;66.30
33093;DHT22;19456;46.104;12.908;2024-03-22T12:26:29;23.90;65.10
33093;DHT22;19456;46.104;12.908;2024-03-22T12:28:57;24.20;63.50
33093;DHT22;19456;46.104;12.908;2024-03-22T12:31:22;24.30;65.00
33093;DHT22;19456;46.104;12.908;2024-03-22T12:33:48;24.60;62.80
33093;DHT22;19456;46.104;12.908;2024-03-22T12:36:13;24.90;62.80
33093;DHT22;19456;46.104;12.908;2024-03-22T12:38:39;25.00;64.80
33093;DHT22;19456;46.104;12.908;2024-03-22T12:41:04;25.30;63.70
33093;DHT22;19456;46.104;12.908;2024-03-22T12:43:31;25.20;62.10
33093;DHT22;19456;46.104;12.908;2024-03-22T12:45:56;25.20;61.80
33093;DHT22;19456;46.104;12.908;2024-03-22T12:48:22;25.00;61.30
33093;DHT22;19456;46.104;12.908;2024-03-22T12:50:47;25.30;61.20
33093;DHT22;19456;46.104;12.908;2024-03-22T12:53:13;25.70;59.70
33093;DHT22;19456;46.104;12.908;2024-03-22T12:55:39;26.20;59.20
33093;DHT22;19456;46.104;12.908;2024-03-22T12:58:04;25.60;59.30
33093;DHT22;19456;46.104;12.908;2024-03-22T13:00:30;25.80;59.50
33093;DHT22;19456;46.104;12.908;2024-03-22T13:02:55;26.20;59.90
33093;DHT22;19456;46.104;12.908;2024-03-22T13:05:21;26.20;59.80
33093;DHT22;19456;46.104;12.908;2024-03-22T13:07:46;26.40;59.80
33093;DHT22;19456;46.104;12.908;2024-03-22T13:10:13;26.50;58.60
33093;DHT22;19456;46.104;12.908;2024-03-22T13:12:38;26.60;58.10
33093;DHT22;19456;46.104;12.908;2024-03-22T13:15:04;26.80;57.60
33093;DHT22;19456;46.104;12.908;2024-03-22T13:17:30;26.70;58.30
33093;DHT22;19456;46.104;12.908;2024-03-22T13:19:55;26.60;56.70
33093;DHT22;19456;46.104;12.908;2024-03-22T13:22:21;27.10;56.90
33093;DHT22;19456;46.104;12.908;2024-03-22T13:24:47;27.40;56.60
33093;DHT22;19456;46.104;12.908;2024-03-22T13:27:13;27.70;56.30
33093;DHT22;19456;46.104;12.908;2024-03-22T13:29:42;27.60;56.20
33093;DHT22;19456;46.104;12.908;2024-03-22T13:32:07;28.10;55.90
33093;DHT22;19456;46.104;12.908;2024-03-22T13:34:36;27.50;56.00
33093;DHT22;19456;46.104;12.908;2024-03-22T13:37:02;27.50;55.50
33093;DHT22;19456;46.104;12.908;2024-03-22T13:39:31;27.70;55.50
33093;DHT22;19456;46.104;12.908;2024-03-22T13:41:56;27.80;54.30
33093;DHT22;19456;46.104;12.908;2024-03-22T13:44:22;27.70;54.40
33093;DHT22;19456;46.104;12.908;2024-03-22T13:46:51;28.00;55.00
33093;DHT22;19456;46.104;12.908;2024-03-22T13:49:17;27.90;54.40
33093;DHT22;19456;46.104;12.908;2024-03-22T13:51:46;27.90;54.60
33093;DHT22;19456;46.104;12.908;2024-03-22T13:54:12;27.50;55.30
33093;DHT22;19456;46.104;12.908;2024-03-22T13:56:37;27.30;54.00
33093;DHT22;19456;46.104;12.908;2024-03-22T13:59:03;27.30;54.50
33093;DHT22;19456;46.104;12.908;2024-03-22T14:01:34;27.30;53.80
33093;DHT22;19456;46.104;12.908;2024-03-22T14:04:00;27.90;53.70
33093;DHT22;19456;46.104;12.908;2024-03-22T14:06:25;28.80;53.00
33093;DHT22;19456;46.104;12.908;2024-03-22T14:08:51;29.70;51.90
33093;DHT22;19456;46.104;12.908;2024-03-22T14:11:20;30.10;50.60
33093;DHT22;19456;46.104;12.908;2024-03-22T14:13:45;30.00;49.60
33093;DHT22;19456;46.104;12.908;2024-03-22T14:16:10;29.80;49.10
33093;DHT22;19456;46.104;12.908;2024-03-22T14:18:36;29.50;49.90
33093;DHT22;19456;46.104;12.908;2024-03-22T14:21:02;29.00;49.00
33093;DHT22;19456;46.104;12.908;2024-03-22T14:23:30;28.80;48.40
33093;DHT22;19456;46.104;12.908;2024-03-22T14:25:59;28.40;49.60
33093;DHT22;19456;46.104;12.908;2024-03-22T14:28:25;29.20;49.50
33093;DHT22;19456;46.104;12.908;2024-03-22T14:30:50;28.70;48.90
33093;DHT22;19456;46.104;12.908;2024-03-22T14:33:16;28.90;49.10
33093;DHT22;19456;46.104;12.908;2024-03-22T14:35:42;29.20;49.60
33093;DHT22;19456;46.104;12.908;2024-03-22T14:38:08;29.50;49.30
33093;DHT22;19456;46.104;12.908;2024-03-22T14:40:33;29.50;48.80
33093;DHT22;19456;46.104;12.908;2024-03-22T14:43:02;29.40;49.00
33093;DHT22;19456;46.104;12.908;2024-03-22T14:45:28;29.50;49.20
33093;DHT22;19456;46.104;12.908;2024-03-22T14:47:54;28.90;49.90
33093;DHT22;19456;46.104;12.908;2024-03-22T14:50:19;28.20;51.90
33093;DHT22;19456;46.104;12.908;2024-03-22T14:52:47;28.30;52.10
33093;DHT22;19456;46.104;12.908;2024-03-22T14:55:13;28.30;53.40
33093;DHT22;19456;46.104;12.908;2024-03-22T14:57:38;28.10;53.80
33093;DHT22;19456;46.104;12.908;2024-03-22T15:00:04;28.20;54.00
33093;DHT22;19456;46.104;12.908;2024-03-22T15:02:35;28.30;53.60
33093;DHT22;19456;46.104;12.908;2024-03-22T15:05:00;27.80;54.10
33093;DHT22;19456;46.104;12.908;2024-03-22T15:07:26;27.20;55.20
33093;DHT22;19456;46.104;12.908;2024-03-22T15:09:54;27.00;55.90
33093;DHT22;19456;46.104;12.908;2024-03-22T15:12:20;26.90;56.30
33093;DHT22;19456;46.104;12.908;2024-03-22T15:14:45;26.70;56.80
33093;DHT22;19456;46.104;12.908;2024-03-22T15:17:11;27.00;57.20
33093;DHT22;19456;46.104;12.908;2024-03-22T15:19:37;27.60;56.70
33093;DHT22;19456;46.104;12.908;2024-03-22T15:22:05;28.20;55.60
33093;DHT22;19456;46.104;12.908;2024-03-22T15:27:33;28.00;54.90
33093;DHT22;19456;46.104;12.908;2024-03-22T15:29:59;27.50;56.00
33093;DHT22;19456;46.104;12.908;2024-03-22T15:32:24;27.40;55.80
33093;DHT22;19456;46.104;12.908;2024-03-22T15:34:52;27.20;56.20
33093;DHT22;19456;46.104;12.908;2024-03-22T15:37:17;27.20;56.40
33093;DHT22;19456;46.104;12.908;2024-03-22T15:39:43;27.10;56.60
33093;DHT22;19456;46.104;12.908;2024-03-22T15:42:08;27.10;56.10
33093;DHT22;19456;46.104;12.908;2024-03-22T15:44:34;26.70;57.30
33093;DHT22;19456;46.104;12.908;2024-03-22T15:46:59;26.50;56.90
33093;DHT22;19456;46.104;12.908;2024-03-22T15:49:27;26.50;56.90
33093;DHT22;19456;46.104;12.908;2024-03-22T15:51:52;26.50;57.50
33093;DHT22;19456;46.104;12.908;2024-03-22T15:54:19;26.60;56.90
33093;DHT22;19456;46.104;12.908;2024-03-22T15:56:44;26.50;56.90
33093;DHT22;19456;46.104;12.908;2024-03-22T15:59:10;26.30;56.60
33093;DHT22;19456;46.104;12.908;2024-03-22T16:01:36;25.80;58.20
33093;DHT22;19456;46.104;12.908;2024-03-22T16:04:04;25.40;58.40
33093;DHT22;19456;46.104;12.908;2024-03-22T16:06:30;24.90;60.90
33093;DHT22;19456;46.104;12.908;2024-03-22T16:08:56;24.10;60.70
33093;DHT22;19456;46.104;12.908;2024-03-22T16:11:21;23.60;62.80
33093;DHT22;19456;46.104;12.908;2024-03-22T16:13:47;23.00;64.20
33093;DHT22;19456;46.104;12.908;2024-03-22T16:16:12;22.60;65.40
33093;DHT22;19456;46.104;12.908;2024-03-22T16:18:38;22.10;67.20
33093;DHT22;19456;46.104;12.908;2024-03-22T16:21:03;21.90;68.90
33093;DHT22;19456;46.104;12.908;2024-03-22T16:23:29;21.70;72.20
33093;DHT22;19456;46.104;12.908;2024-03-22T16:25:57;21.40;70.50
33093;DHT22;19456;46.104;12.908;2024-03-22T16:28:23;21.20;71.10
33093;DHT22;19456;46.104;12.908;2024-03-22T16:30:48;21.00;71.80